Date,TemperatureHighF,TemperatureAvgF,TemperatureLowF,DewpointHighF,DewpointAvgF,DewpointLowF,HumidityHigh,HumidityAvg,HumidityLow,PressureMaxIn,PressureMinIn,WindSpeedMaxMPH,WindSpeedAvgMPH,GustSpeedMaxMPH,PrecipitationSumIn
2013-7-12,52.5,52.4,52.3,51.7,51.6,51.5,97,97,97,29.57,29.56,0,0,0,0.00
2013-7-13,65.3,57.0,52.0,54.5,52.2,51.0,98,85,65,29.63,29.56,3,0,11,0.00
2013-7-14,63.3,55.5,51.6,54.2,52.0,50.9,99,89,68,29.67,29.57,1,0,4,0.00
2013-7-15,62.8,54.8,50.0,54.4,51.9,49.7,99,91,71,29.59,29.51,2,0,5,0.00
2013-7-16,66.4,57.6,52.3,56.2,53.9,31.2,98,88,65,29.69,29.53,109,0,4,1.14
2013-7-17,66.2,58.2,53.2,55.6,53.8,51.6,98,86,67,29.76,29.68,2,0,7,0.00
2013-7-18,63.7,56.0,52.3,55.6,52.8,51.1,98,90,71,29.73,29.61,4,0,9,0.00
2013-7-19,63.7,55.6,52.2,54.6,52.4,50.7,98,90,71,29.62,29.49,4,0,9,0.00
2013-7-20,60.4,54.1,51.1,54.3,51.5,49.8,99,92,76,29.53,29.41,4,0,13,0.00
2013-7-21,62.6,54.9,51.3,54.6,52.0,50.7,99,91,71,29.55,29.44,2,0,7,1.14
2013-7-22,64.4,57.4,52.7,58.8,54.6,51.9,99,91,74,29.63,29.54,2,0,6,0.00
2013-7-23,69.8,60.0,54.5,65.2,54.9,53.2,97,84,63,29.68,29.60,2,0,6,0.00
2013-7-24,70.2,60.3,53.1,60.6,54.1,51.1,97,81,58,29.66,29.57,2,0,5,0.00
2013-7-25,64.9,56.1,51.8,55.6,52.3,50.6,98,88,67,29.69,29.59,2,0,4,0.00
2013-7-26,65.5,56.7,52.3,56.6,52.7,-99.9,98,89,69,29.77,29.67,9,0,6,1.14
2013-7-27,64.6,56.2,52.9,55.6,53.1,51.8,97,90,69,29.71,29.53,2,0,6,0.00
2013-7-28,61.7,55.3,53.1,54.4,52.2,50.4,97,90,72,29.55,29.48,2,0,5,0.00
2013-7-29,65.1,56.9,53.1,53.7,51.9,51.1,93,84,65,29.68,29.50,2,0,5,0.00
2013-7-30,65.1,56.3,52.3,53.4,51.5,50.1,93,84,65,29.77,29.68,2,0,10,0.00
2013-7-31,65.1,56.5,51.6,54.7,51.7,49.8,95,85,64,29.75,29.67,2,0,8,0.00